createdAt,value
2023-01-09T00:00:32.538Z,75.74
2023-01-09T00:03:54.756Z,75.66
2023-01-09T00:06:56.566Z,75.74
2023-01-09T00:09:58.510Z,75.75
2023-01-09T00:13:00.388Z,75.68
2023-01-09T00:16:06.691Z,75.80
2023-01-09T00:19:08.743Z,75.88
2023-01-09T00:22:10.573Z,75.90
2023-01-09T00:25:12.424Z,75.99
2023-01-09T00:28:14.253Z,76.26
2023-01-09T00:31:17.788Z,76.22
2023-01-09T00:34:19.698Z,76.44
2023-01-09T00:37:22.111Z,76.61
2023-01-09T00:40:24.089Z,76.71
2023-01-09T00:43:30.823Z,76.78
2023-01-09T00:46:37.205Z,76.97
2023-01-09T00:49:40.353Z,76.97
2023-01-09T00:52:43.378Z,76.92
2023-01-09T00:55:45.272Z,76.90
2023-01-09T00:58:47.818Z,76.87
2023-01-09T01:01:49.853Z,76.92
2023-01-09T01:05:09.963Z,76.97
2023-01-09T01:08:14.466Z,76.96
2023-01-09T01:11:16.576Z,77.07
2023-01-09T01:14:18.412Z,77.22
2023-01-09T01:17:20.363Z,77.31
2023-01-09T01:20:22.201Z,77.40
2023-01-09T01:23:24.272Z,77.45
2023-01-09T01:26:26.141Z,77.55
2023-01-09T01:29:28.175Z,77.66
2023-01-09T01:32:30.003Z,77.66
2023-01-09T01:35:31.914Z,77.69
2023-01-09T01:38:35.041Z,77.78
2023-01-09T01:41:37.859Z,77.88
2023-01-09T01:45:00.941Z,77.92
2023-01-09T01:48:12.288Z,77.99
2023-01-09T01:51:16.411Z,78.06
2023-01-09T01:54:25.033Z,77.98
2023-01-09T01:57:27.089Z,77.92
2023-01-09T02:00:36.585Z,77.88
2023-01-09T02:03:40.684Z,77.83
2023-01-09T02:06:43.899Z,77.91
2023-01-09T02:09:46.090Z,78.03
2023-01-09T02:12:47.826Z,78.09
2023-01-09T02:16:24.055Z,78.08
2023-01-09T02:20:16.952Z,78.17
2023-01-09T02:23:37.536Z,78.25
2023-01-09T02:27:23.900Z,78.34
2023-01-09T02:30:40.285Z,78.44
2023-01-09T02:33:50.272Z,78.42
2023-01-09T02:37:22.559Z,78.50
2023-01-09T02:40:47.418Z,78.54
2023-01-09T02:44:16.226Z,78.62
2023-01-09T02:47:18.008Z,78.66
2023-01-09T02:50:23.987Z,78.71
2023-01-09T02:53:50.516Z,78.71
2023-01-09T02:57:13.819Z,78.65
2023-01-09T03:00:15.751Z,78.54
2023-01-09T03:03:37.551Z,78.49
2023-01-09T03:06:47.109Z,78.52
2023-01-09T03:09:53.574Z,78.55
2023-01-09T03:12:59.004Z,78.52
2023-01-09T03:16:07.353Z,78.42
2023-01-09T03:19:15.633Z,78.43
2023-01-09T03:22:18.015Z,78.43
2023-01-09T03:25:20.649Z,78.32
2023-01-09T03:28:28.660Z,78.30
2023-01-09T03:31:30.610Z,78.32
2023-01-09T03:34:32.522Z,78.29
2023-01-09T03:37:34.380Z,78.12
2023-01-09T03:40:36.349Z,78.07
2023-01-09T03:43:38.429Z,78.01
2023-01-09T03:46:40.309Z,78.07
2023-01-09T03:49:42.177Z,78.01
2023-01-09T03:52:44.029Z,77.95
2023-01-09T03:55:47.496Z,77.87
2023-01-09T03:58:49.663Z,77.76
2023-01-09T04:01:52.330Z,77.71
2023-01-09T04:04:54.234Z,77.62
2023-01-09T04:07:56.076Z,77.59
2023-01-09T04:10:57.929Z,77.76
2023-01-09T04:13:59.846Z,77.96
2023-01-09T04:17:01.893Z,78.11
2023-01-09T04:20:04.136Z,78.24
2023-01-09T04:23:05.845Z,78.30
2023-01-09T04:26:07.733Z,78.25
2023-01-09T04:29:09.572Z,78.29
2023-01-09T04:32:11.401Z,78.33
2023-01-09T04:35:13.386Z,78.37
2023-01-09T04:38:15.277Z,78.43
2023-01-09T04:41:37.056Z,78.50
2023-01-09T04:44:38.976Z,78.45
2023-01-09T04:47:40.967Z,78.41
2023-01-09T04:50:42.885Z,78.44
2023-01-09T04:53:44.749Z,78.45
2023-01-09T04:56:47.043Z,78.46
2023-01-09T04:59:48.753Z,78.34
2023-01-09T05:02:50.694Z,78.30
2023-01-09T05:05:52.645Z,78.33
2023-01-09T05:08:55.987Z,78.39
2023-01-09T05:11:57.878Z,78.44
2023-01-09T05:14:59.746Z,78.46
2023-01-09T05:18:01.606Z,78.48
2023-01-09T05:21:03.866Z,78.52
2023-01-09T05:24:05.725Z,78.56
2023-01-09T05:27:07.675Z,78.52
2023-01-09T05:30:10.370Z,78.50
2023-01-09T05:33:12.293Z,78.57
2023-01-09T05:36:14.555Z,78.66
2023-01-09T05:39:16.226Z,78.70
2023-01-09T05:42:18.060Z,78.67
2023-01-09T05:45:20.073Z,78.74
2023-01-09T05:48:22.078Z,78.88
2023-01-09T05:51:23.916Z,78.95
2023-01-09T05:54:25.755Z,79.02
2023-01-09T05:57:28.241Z,79.04
2023-01-09T06:00:30.705Z,79.09
2023-01-09T06:03:32.864Z,79.11
2023-01-09T06:06:34.714Z,79.08
2023-01-09T06:09:36.606Z,79.05
2023-01-09T06:12:38.626Z,79.08
2023-01-09T06:15:40.622Z,79.10
2023-01-09T06:18:42.554Z,79.12
2023-01-09T06:21:44.414Z,79.11
2023-01-09T06:24:46.476Z,79.16
2023-01-09T06:27:49.468Z,79.14
2023-01-09T06:30:52.564Z,79.14
2023-01-09T06:33:54.501Z,79.15
2023-01-09T06:36:56.356Z,79.19
2023-01-09T06:39:58.748Z,79.23
2023-01-09T06:43:00.647Z,79.24
2023-01-09T06:46:04.941Z,79.29
2023-01-09T06:49:09.900Z,79.37
2023-01-09T06:52:11.855Z,79.39
2023-01-09T06:55:13.762Z,79.45
2023-01-09T06:58:15.796Z,79.51
2023-01-09T07:01:17.832Z,79.60
2023-01-09T07:04:21.464Z,79.66
2023-01-09T07:07:23.439Z,79.74
2023-01-09T07:10:25.397Z,79.82
2023-01-09T07:13:27.421Z,79.91
2023-01-09T07:16:29.261Z,80.01
2023-01-09T07:19:31.316Z,80.09
2023-01-09T07:22:33.327Z,80.08
2023-01-09T07:25:35.215Z,80.08
2023-01-09T07:28:37.096Z,80.06
2023-01-09T07:31:39.158Z,80.00
2023-01-09T07:34:41.132Z,79.99
2023-01-09T07:37:43.048Z,79.98
2023-01-09T07:40:44.961Z,79.92
2023-01-09T07:43:46.885Z,79.96
2023-01-09T07:46:48.782Z,80.03
2023-01-09T07:49:53.255Z,80.08
2023-01-09T07:52:55.162Z,80.14
2023-01-09T07:55:57.179Z,80.22
2023-01-09T07:58:59.505Z,80.23
2023-01-09T08:02:04.821Z,80.27
2023-01-09T08:05:12.959Z,80.19
2023-01-09T08:08:16.135Z,80.24
2023-01-09T08:11:27.047Z,80.37
2023-01-09T08:14:29.145Z,80.50
2023-01-09T08:17:31.777Z,80.67
2023-01-09T08:20:35.300Z,80.80
2023-01-09T08:23:44.416Z,80.95
2023-01-09T08:26:46.348Z,81.25
2023-01-09T08:29:48.290Z,81.55
2023-01-09T08:32:58.885Z,81.83
2023-01-09T08:36:03.412Z,81.97
2023-01-09T08:39:05.393Z,82.11
2023-01-09T08:42:28.266Z,82.13
2023-01-09T08:45:53.198Z,82.15
2023-01-09T08:48:56.667Z,82.20
2023-01-09T08:51:59.740Z,82.18
2023-01-09T08:55:01.651Z,82.22
2023-01-09T08:58:03.616Z,82.33
2023-01-09T09:01:06.887Z,82.43
2023-01-09T09:04:08.797Z,82.60
2023-01-09T09:07:10.654Z,82.77
2023-01-09T09:10:17.901Z,83.02
2023-01-09T09:13:19.874Z,83.23
2023-01-09T09:16:26.324Z,83.42
2023-01-09T09:19:28.291Z,83.59
2023-01-09T09:22:30.457Z,83.70
2023-01-09T09:25:32.342Z,83.81
2023-01-09T09:28:37.209Z,83.81
2023-01-09T09:31:39.237Z,83.82
2023-01-09T09:34:41.607Z,83.99
2023-01-09T09:37:53.546Z,84.15
2023-01-09T09:41:51.889Z,84.34
2023-01-09T09:44:54.358Z,84.58
2023-01-09T09:48:39.914Z,84.68
2023-01-09T09:52:22.397Z,84.89
2023-01-09T09:55:31.581Z,85.07
2023-01-09T09:58:48.136Z,85.14
2023-01-09T10:02:24.735Z,85.24
2023-01-09T10:10:33.132Z,86.16
2023-01-09T10:13:55.173Z,86.19
2023-01-09T10:17:17.767Z,86.12
2023-01-09T10:20:51.601Z,86.05
2023-01-09T10:23:54.838Z,86.01
2023-01-09T10:27:14.997Z,86.00
2023-01-09T10:30:40.102Z,86.02
2023-01-09T10:34:02.167Z,86.05
2023-01-09T10:37:20.172Z,86.06
2023-01-09T10:40:30.633Z,86.02
2023-01-09T10:43:47.028Z,85.98
2023-01-09T10:46:57.566Z,86.01
2023-01-09T10:50:16.031Z,86.03
2023-01-09T10:53:28.883Z,86.14
2023-01-09T10:56:40.138Z,86.25
2023-01-09T10:59:46.330Z,86.31
2023-01-09T11:02:50.890Z,86.29
2023-01-09T11:05:58.388Z,86.40
2023-01-09T11:09:02.920Z,86.37
2023-01-09T11:12:26.300Z,86.41
2023-01-09T11:15:52.959Z,86.50
2023-01-09T11:19:07.699Z,86.48
2023-01-09T11:22:20.055Z,86.54
2023-01-09T11:25:28.395Z,86.65
2023-01-09T11:28:31.897Z,86.67
2023-01-09T11:31:35.648Z,86.61
2023-01-09T11:34:40.247Z,86.75
2023-01-09T11:37:51.310Z,86.83
2023-01-09T11:41:03.143Z,86.79
2023-01-09T11:44:09.292Z,86.74
2023-01-09T11:47:38.744Z,86.77
2023-01-09T11:51:00.335Z,86.79
2023-01-09T11:54:35.167Z,86.80
2023-01-09T11:57:39.860Z,86.78
2023-01-09T12:01:00.334Z,86.85
2023-01-09T12:04:45.593Z,86.96
2023-01-09T12:08:30.542Z,87.07
2023-01-09T12:12:18.588Z,87.13
2023-01-09T12:15:32.462Z,87.06
2023-01-09T12:19:29.141Z,87.11
2023-01-09T12:23:23.801Z,87.21
2023-01-09T12:27:37.669Z,87.27
2023-01-09T12:39:38.668Z,87.16
2023-01-09T12:44:01.375Z,87.17
2023-01-09T12:47:36.384Z,87.18
2023-01-09T12:51:41.722Z,87.16
2023-01-09T12:54:55.095Z,87.13
2023-01-09T12:58:23.964Z,87.08
2023-01-09T13:01:56.896Z,87.10
2023-01-09T13:05:16.622Z,87.09
2023-01-09T13:08:43.619Z,86.91
2023-01-09T13:11:55.747Z,86.97
2023-01-09T13:15:07.824Z,87.00
2023-01-09T13:18:50.038Z,87.04
2023-01-09T13:21:58.250Z,87.04
2023-01-09T13:25:35.452Z,87.03
2023-01-09T13:29:18.365Z,87.01
2023-01-09T13:33:05.587Z,86.92
2023-01-09T13:36:38.875Z,86.90
2023-01-09T13:39:54.565Z,86.83
2023-01-09T13:43:20.087Z,86.78
2023-01-09T13:47:00.763Z,86.81
2023-01-09T13:50:09.711Z,86.82
2023-01-09T13:53:40.787Z,86.78
2023-01-09T13:57:45.865Z,86.79
2023-01-09T14:00:58.772Z,86.77
2023-01-09T14:04:41.753Z,86.73
2023-01-09T14:08:02.728Z,86.69
2023-01-09T14:11:57.559Z,86.65
2023-01-09T14:15:32.061Z,86.58
2023-01-09T14:18:52.285Z,86.46
2023-01-09T14:22:13.327Z,86.38
2023-01-09T14:25:24.239Z,86.27
2023-01-09T14:28:32.087Z,86.17
2023-01-09T14:31:35.569Z,86.09
2023-01-09T14:34:44.355Z,86.02
2023-01-09T14:38:01.609Z,86.00
2023-01-09T14:41:45.809Z,86.00
2023-01-09T14:45:31.073Z,85.95
2023-01-09T14:48:50.926Z,85.92
2023-01-09T14:51:58.351Z,85.86
2023-01-09T14:55:41.462Z,85.81
2023-01-09T14:58:48.233Z,85.80
2023-01-09T15:02:02.266Z,85.77
2023-01-09T15:05:15.071Z,85.76
2023-01-09T15:08:22.438Z,85.76
2023-01-09T15:11:29.757Z,85.75
2023-01-09T15:15:10.313Z,85.74
2023-01-09T15:18:24.381Z,85.75
2023-01-09T15:21:31.276Z,85.72
2023-01-09T15:24:39.439Z,85.71
2023-01-09T15:27:51.814Z,85.71
2023-01-09T15:31:08.234Z,85.69
2023-01-09T15:34:18.153Z,85.67
2023-01-09T15:37:30.534Z,85.61
2023-01-09T15:40:34.982Z,85.59
2023-01-09T15:43:44.146Z,85.55
2023-01-09T15:46:50.324Z,85.51
2023-01-09T15:49:55.966Z,85.44
2023-01-09T15:58:26.892Z,85.27
2023-01-09T16:01:47.916Z,85.20
2023-01-09T16:04:55.065Z,85.13
2023-01-09T16:07:59.226Z,85.08
2023-01-09T16:11:10.645Z,85.01
2023-01-09T16:14:21.046Z,84.96
2023-01-09T16:17:26.704Z,84.89
2023-01-09T16:20:30.243Z,84.86
2023-01-09T16:23:35.764Z,84.80
2023-01-09T16:26:45.656Z,84.76
2023-01-09T16:29:58.747Z,84.72
2023-01-09T16:33:02.558Z,84.65
2023-01-09T16:36:06.319Z,84.59
2023-01-09T16:39:27.861Z,84.50
2023-01-09T16:42:53.650Z,84.43
2023-01-09T16:45:57.171Z,84.38
2023-01-09T16:49:00.458Z,84.33
2023-01-09T16:52:17.562Z,84.22
2023-01-09T16:55:21.132Z,84.16
2023-01-09T16:58:30.499Z,84.13
2023-01-09T17:01:33.904Z,84.10
2023-01-09T17:04:37.174Z,84.07
2023-01-09T17:07:40.488Z,84.04
2023-01-09T17:10:44.477Z,84.02
2023-01-09T17:13:48.394Z,84.00
2023-01-09T17:16:52.122Z,83.99
2023-01-09T17:19:58.069Z,83.97
2023-01-09T17:23:04.468Z,83.95
2023-01-09T17:26:36.745Z,83.93
2023-01-09T17:29:40.405Z,83.91
2023-01-09T17:32:47.933Z,83.88
2023-01-09T17:35:51.537Z,83.86
2023-01-09T17:38:57.882Z,83.85
2023-01-09T17:42:02.010Z,83.85
2023-01-09T17:45:10.092Z,83.84
2023-01-09T17:48:21.855Z,83.83
2023-01-09T17:51:25.466Z,83.84
2023-01-09T17:54:28.941Z,83.83
2023-01-09T17:57:32.965Z,83.80
2023-01-09T18:00:39.691Z,83.78
2023-01-09T18:03:44.385Z,83.74
2023-01-09T18:06:49.647Z,83.74
2023-01-09T18:09:53.555Z,83.68
2023-01-09T18:12:57.045Z,83.60
2023-01-09T18:16:01.389Z,83.57
2023-01-09T18:19:04.865Z,83.54
2023-01-09T18:22:10.216Z,83.50
2023-01-09T18:25:13.495Z,83.45
2023-01-09T18:28:19.780Z,83.43
2023-01-09T18:31:24.631Z,83.36
2023-01-09T18:34:27.882Z,83.24
2023-01-09T18:37:31.172Z,83.10
2023-01-09T18:40:34.548Z,82.99
2023-01-09T18:43:37.820Z,82.91
2023-01-09T18:46:42.161Z,82.83
2023-01-09T18:49:45.373Z,82.78
2023-01-09T18:52:48.599Z,82.74
2023-01-09T18:55:51.777Z,82.63
2023-01-09T18:58:57.299Z,82.57
2023-01-09T19:02:02.198Z,82.50
2023-01-09T19:05:06.459Z,82.45
2023-01-09T19:08:09.683Z,82.40
2023-01-09T19:11:12.933Z,82.40
2023-01-09T19:14:16.193Z,82.35
2023-01-09T19:17:19.633Z,82.33
2023-01-09T19:20:23.411Z,82.34
2023-01-09T19:23:26.685Z,82.31
2023-01-09T19:26:31.097Z,82.27
2023-01-09T19:29:36.616Z,82.28
2023-01-09T19:32:40.619Z,82.28
2023-01-09T19:35:48.933Z,82.30
2023-01-09T19:38:59.904Z,82.27
2023-01-09T19:42:03.788Z,82.25
2023-01-09T19:45:08.258Z,82.25
2023-01-09T19:48:11.675Z,82.24
2023-01-09T19:51:20.112Z,82.21
2023-01-09T19:54:23.607Z,82.15
2023-01-09T19:57:26.866Z,82.12
2023-01-09T20:00:30.220Z,82.08
2023-01-09T20:03:33.496Z,82.04
2023-01-09T20:06:41.727Z,81.97
2023-01-09T20:09:45.571Z,81.93
2023-01-09T20:12:49.558Z,81.88
2023-01-09T20:15:59.079Z,81.86
2023-01-09T20:19:09.670Z,81.72
2023-01-09T20:22:13.594Z,81.63
2023-01-09T20:25:16.933Z,81.53
2023-01-09T20:28:21.274Z,81.48
2023-01-09T20:31:31.203Z,81.45
2023-01-09T20:34:34.600Z,81.49
2023-01-09T20:40:57.362Z,81.56
2023-01-09T20:44:12.932Z,81.60
2023-01-09T20:47:16.181Z,81.62
2023-01-09T20:50:19.486Z,81.56
2023-01-09T20:53:22.910Z,81.48
2023-01-09T20:56:29.123Z,81.41
2023-01-09T20:59:32.552Z,81.40
2023-01-09T21:02:36.176Z,81.39
2023-01-09T21:05:43.537Z,81.40
2023-01-09T21:09:10.241Z,81.39
2023-01-09T21:12:44.539Z,81.40
2023-01-09T21:17:36.664Z,81.31
2023-01-09T21:20:44.729Z,81.21
2023-01-09T21:24:07.836Z,81.13
2023-01-09T21:30:28.513Z,81.12
2023-01-09T21:33:31.833Z,81.15
2023-01-09T21:36:35.711Z,81.17
2023-01-09T21:43:23.755Z,81.18
2023-01-09T21:46:45.308Z,81.21
2023-01-09T21:49:48.780Z,81.23
2023-01-09T21:52:52.003Z,81.25
2023-01-09T21:55:55.370Z,81.28
2023-01-09T21:58:58.790Z,81.30
2023-01-09T22:02:11.873Z,81.35
2023-01-09T22:05:15.197Z,81.42
2023-01-09T22:08:18.686Z,81.49
2023-01-09T22:11:21.934Z,81.54
2023-01-09T22:14:25.121Z,81.60
2023-01-09T22:17:29.050Z,81.64
2023-01-09T22:20:32.263Z,81.69
2023-01-09T22:23:35.563Z,81.72
2023-01-09T22:26:38.734Z,81.74
2023-01-09T22:29:41.961Z,81.74
2023-01-09T22:32:45.288Z,81.72
2023-01-09T22:35:48.521Z,81.71
2023-01-09T22:38:56.442Z,81.70
2023-01-09T22:41:59.791Z,81.72
2023-01-09T22:45:03.407Z,81.71
2023-01-09T22:48:06.671Z,81.70
2023-01-09T22:51:09.812Z,81.69
2023-01-09T22:54:13.009Z,81.70
2023-01-09T22:57:16.239Z,81.69
2023-01-09T23:00:19.682Z,81.69
2023-01-09T23:08:16.538Z,81.74
2023-01-09T23:11:47.505Z,81.71
2023-01-09T23:14:50.760Z,81.68
2023-01-09T23:17:53.751Z,81.67
2023-01-09T23:20:59.880Z,81.66
2023-01-09T23:24:03.107Z,81.68
2023-01-09T23:27:07.533Z,81.70
2023-01-09T23:30:11.116Z,81.72
2023-01-09T23:33:14.647Z,81.73
2023-01-09T23:36:17.901Z,81.71
2023-01-09T23:39:21.456Z,81.71
2023-01-09T23:42:43.302Z,81.69
2023-01-09T23:45:46.784Z,81.69
2023-01-09T23:48:50.037Z,81.70
2023-01-09T23:51:53.160Z,81.69
2023-01-09T23:54:56.922Z,81.67
2023-01-09T23:58:00.533Z,81.67
